Terminal Aerodrome Forecast
Issued by NWS

Home | Current Version | Previous Version | Text Only | Print | Product List | Glossary On
Versions: 1 2 3 4 5 6 7 8 9 10 11 12 13 14 15 16 17 18 19 20 21 22 23 24 25 26 27 28 29 30 31 32 33 34 35 36 37 38
000
FTUS42 KRAH 210521
TAFINT
TAF
KINT 210521Z 2106/2206 VRB04KT P6SM FEW035 BKN250
      TEMPO 2109/2112 4SM BR
     FM211800 31007KT P6SM BKN005 BKN250=

USA.gov is the U.S. government's official web portal to all federal, state and local government web resources and services.